
Distance (Route):
Temperature : -48.8°C
Humidity : 0.7%
Pressure : 0hPa| Receiver | Frames | First received | Last received |
|---|---|---|---|
| RDZBGO | 37 | 2026-09-01 00:35:09 | 2026-09-01 00:47:33 |
| Receiver | Date | Latitude | Longitude | Direction | Speed | Altitude | Climb | Temperature | Humidity | Pressure | Voltage | Killtimer | Uptime | BKT | XDATA |
|---|---|---|---|---|---|---|---|---|---|---|---|---|---|---|---|
| RDZBGO | 2026-09-01 00:47:33 | 39.36793 | 9.17036 | 265° | 15km/h | 26979m | -27.1m/s | -48.8°C | 0.7% | 0hPa | 0V | 00:00:00 | 00:00:00 | 00:00:00 | |
| RDZBGO | 2026-09-01 00:47:09 | 39.36819 | 9.17269 | 287° | 22km/h | 27695m | -31.1m/s | -47.8°C | 0.7% | 0hPa | 0V | 08:28:00 | 00:00:00 | 00:00:00 | |
| RDZBGO | 2026-09-01 00:46:48 | 39.36805 | 9.17402 | 285° | 22km/h | 28309m | -34.7m/s | -45.7°C | 0.6% | 0hPa | 0V | 08:28:00 | 00:00:00 | 00:00:00 | |
| RDZBGO | 2026-09-01 00:46:27 | 39.36801 | 9.17594 | 271° | 29km/h | 28935m | -31.7m/s | -44.5°C | 0.6% | 0hPa | 0V | 08:29:00 | 00:00:00 | 00:00:00 | |
| RDZBGO | 2026-09-01 00:46:07 | 39.36744 | 9.17710 | 310° | 15km/h | 29627m | -33.1m/s | -44.3°C | 0.5% | 0hPa | 0V | 08:29:00 | 00:00:00 | 00:00:00 | |
| RDZBGO | 2026-09-01 00:45:46 | 39.36717 | 9.17812 | 277° | 24km/h | 30352m | -32.4m/s | -43.3°C | 0.5% | 0hPa | 0V | 08:29:00 | 00:00:00 | 00:00:00 | |
| RDZBGO | 2026-09-01 00:45:25 | 39.36758 | 9.17959 | 247° | 29km/h | 31126m | -38.1m/s | -43.1°C | 0.5% | 0hPa | 0V | 08:29:00 | 00:00:00 | 00:00:00 | |
| RDZBGO | 2026-09-01 00:45:05 | 39.36825 | 9.18147 | 247° | 42km/h | 31887m | -39.9m/s | -40.7°C | 0.4% | 0hPa | 0V | 08:29:00 | 00:00:00 | 00:00:00 | |
| RDZBGO | 2026-09-01 00:44:44 | 39.36882 | 9.18406 | 276° | 27km/h | 32711m | -44.0m/s | -39.4°C | 0.4% | 0hPa | 0V | 00:00:00 | 00:00:00 | 00:00:00 | |
| RDZBGO | 2026-09-01 00:44:24 | 39.36837 | 9.18612 | 339° | 37km/h | 33534m | -51.2m/s | -38.4°C | 0.3% | 0hPa | 0V | 00:00:00 | 00:00:00 | 00:00:00 | |
| RDZBGO | 2026-09-01 00:44:05 | 39.36818 | 9.18900 | 287° | 55km/h | 33780m | 5.2m/s | -38.3°C | 0.3% | 0hPa | 0V | 00:00:00 | 00:00:00 | 00:00:00 | |
| RDZBGO | 2026-09-01 00:43:44 | 39.36796 | 9.19163 | 288° | 47km/h | 33665m | 6.1m/s | -38.8°C | 0.3% | 0hPa | 0V | 00:00:00 | 00:00:00 | 00:00:00 | |
| RDZBGO | 2026-09-01 00:43:24 | 39.36755 | 9.19392 | 282° | 33km/h | 33541m | 6.2m/s | -39.7°C | 0.3% | 0hPa | 0V | 00:00:00 | 00:00:00 | 00:00:00 | |
| RDZBGO | 2026-09-01 00:43:02 | 39.36718 | 9.19635 | 288° | 40km/h | 33413m | 5.6m/s | -39.6°C | 0.4% | 0hPa | 0V | 00:00:00 | 00:00:00 | 00:00:00 | |
| RDZBGO | 2026-09-01 00:42:47 | 39.36723 | 9.19912 | 248° | 49km/h | 33281m | 6.5m/s | -39.3°C | 0.4% | 0hPa | 0V | 00:00:00 | 00:00:00 | 00:00:00 | |
| RDZBGO | 2026-09-01 00:42:20 | 39.36740 | 9.20195 | 260° | 46km/h | 33150m | 5.0m/s | -39.5°C | 0.4% | 0hPa | 0V | 00:00:00 | 00:00:00 | 00:00:00 | |
| RDZBGO | 2026-09-01 00:41:59 | 39.36760 | 9.20476 | 248° | 44km/h | 33020m | 6.2m/s | -39.7°C | 0.4% | 0hPa | 0V | 00:00:00 | 00:00:00 | 00:00:00 | |
| RDZBGO | 2026-09-01 00:41:38 | 39.36792 | 9.20784 | 259° | 47km/h | 32885m | 5.5m/s | -40.1°C | 0.4% | 0hPa | 0V | 00:00:00 | 00:00:00 | 00:00:00 | |
| RDZBGO | 2026-09-01 00:41:17 | 39.36801 | 9.21032 | 299° | 35km/h | 32757m | 6.8m/s | -40.0°C | 0.3% | 0hPa | 0V | 00:00:00 | 00:00:00 | 00:00:00 | |
| RDZBGO | 2026-09-01 00:40:57 | 39.36811 | 9.21269 | 259° | 40km/h | 32639m | 6.1m/s | -40.5°C | 0.4% | 0hPa | 0V | 00:00:00 | 00:00:00 | 00:00:00 | |
| RDZBGO | 2026-09-01 00:40:36 | 39.36863 | 9.21577 | 267° | 53km/h | 32516m | 4.2m/s | -41.0°C | 0.4% | 0hPa | 0V | 00:00:00 | 00:00:00 | 00:00:00 | |
| RDZBGO | 2026-09-01 00:40:15 | 39.36994 | 9.21871 | 235° | 62km/h | 32398m | 7.2m/s | -41.2°C | 0.4% | 0hPa | 0V | 00:00:00 | 00:00:00 | 00:00:00 | |
| RDZBGO | 2026-09-01 00:39:55 | 39.37155 | 9.22172 | 227° | 64km/h | 32288m | 4.2m/s | -41.6°C | 0.5% | 0hPa | 0V | 00:00:00 | 00:00:00 | 00:00:00 | |
| RDZBGO | 2026-09-01 00:39:34 | 39.37290 | 9.22485 | 246° | 37km/h | 32173m | 5.0m/s | -42.4°C | 0.5% | 0hPa | 0V | 00:00:00 | 00:00:00 | 00:00:00 | |
| RDZBGO | 2026-09-01 00:39:15 | 39.37410 | 9.22747 | 222° | 27km/h | 32063m | 5.7m/s | -42.3°C | 0.5% | 0hPa | 0V | 00:00:00 | 00:00:00 | 00:00:00 | |
| RDZBGO | 2026-09-01 00:38:53 | 39.37533 | 9.22955 | 234° | 38km/h | 31942m | 5.8m/s | -42.2°C | 0.5% | 0hPa | 0V | 00:00:00 | 00:00:00 | 00:00:00 | |
| RDZBGO | 2026-09-01 00:38:33 | 39.37597 | 9.23128 | 266° | 31km/h | 31822m | 5.6m/s | -42.6°C | 0.5% | 0hPa | 0V | 00:00:00 | 00:00:00 | 00:00:00 | |
| RDZBGO | 2026-09-01 00:38:12 | 39.37650 | 9.23310 | 233° | 37km/h | 31693m | 7.2m/s | -42.5°C | 0.5% | 0hPa | 0V | 00:00:00 | 00:00:00 | 00:00:00 | |
| RDZBGO | 2026-09-01 00:37:52 | 39.37735 | 9.23469 | 223° | 40km/h | 31564m | 5.6m/s | -42.8°C | 0.5% | 0hPa | 0V | 00:00:00 | 00:00:00 | 00:00:00 | |
| RDZBGO | 2026-09-01 00:37:31 | 39.37805 | 9.23637 | 275° | 18km/h | 31424m | 6.4m/s | -43.4°C | 0.5% | 0hPa | 0V | 00:00:00 | 00:00:00 | 00:00:00 | |
| RDZBGO | 2026-09-01 00:37:11 | 39.37842 | 9.23806 | 245° | 37km/h | 31289m | 7.0m/s | -43.9°C | 0.5% | 0hPa | 0V | 00:00:00 | 00:00:00 | 00:00:00 | |
| RDZBGO | 2026-09-01 00:36:51 | 39.37886 | 9.23979 | 276° | 29km/h | 31153m | 5.9m/s | -43.5°C | 0.5% | 0hPa | 0V | 00:00:00 | 00:00:00 | 00:00:00 | |
| RDZBGO | 2026-09-01 00:36:30 | 39.37899 | 9.24092 | 305° | 22km/h | 31019m | 6.4m/s | -43.3°C | 0.6% | 0hPa | 0V | 00:00:00 | 00:00:00 | 00:00:00 | |
| RDZBGO | 2026-09-01 00:36:10 | 39.37873 | 9.24226 | 256° | 15km/h | 30889m | 8.1m/s | -43.2°C | 0.5% | 0hPa | 0V | 00:00:00 | 00:00:00 | 00:00:00 | |
| RDZBGO | 2026-09-01 00:35:49 | 39.37882 | 9.24324 | 252° | 22km/h | 30752m | 6.8m/s | -43.6°C | 0.5% | 0hPa | 0V | 00:00:00 | 00:00:00 | 00:00:00 | |
| RDZBGO | 2026-09-01 00:35:29 | 39.37869 | 9.24432 | 315° | 18km/h | 30618m | 6.8m/s | -43.5°C | 0% | 0hPa | 0V | 00:00:00 | 00:00:00 | 00:00:00 | |
| RDZBGO | 2026-09-01 00:35:09 | 39.37837 | 9.24549 | 266° | 18km/h | 30484m | 7.8m/s | -43.1°C | 0% | 0hPa | 0V | 00:00:00 | 00:00:00 | 00:00:00 |